Time;durP1;ratioP1;P1;durP2;ratioP2;P2;SDS_P1;SDS_P2;PMS_P1;PMS_P2;Temp;Humidity;BMP_temperature;BMP_pressure;BME280_temperature;BME280_humidity;BME280_pressure;Samples;Min_cycle;Max_cycle;Signal;HPM_P1;HPM_P2
2023/09/07 00:01:19;;;;;;;3.65;1.95;;;;;;;;;;5022728;28;20040;-82
2023/09/07 00:03:45;;;;;;;3.17;1.38;;;;;;;;;;5026281;28;20029;-81
2023/09/07 00:06:11;;;;;;;2.63;1.30;;;;;;;;;;5010098;28;20741;-81
2023/09/07 00:08:37;;;;;;;3.55;1.70;;;;;;;;;;5019768;28;20857;-81
2023/09/07 00:11:06;;;;;;;3.35;1.65;;;12.50;99.90;;;;;;5010048;28;20068;-82
2023/09/07 00:13:34;;;;;;;2.90;1.35;;;12.70;99.90;;;;;;5017799;28;20029;-82
2023/09/07 00:16:00;;;;;;;2.38;1.23;;;;;;;;;;5029288;28;20056;-82
2023/09/07 00:18:26;;;;;;;9.07;1.98;;;12.70;99.90;;;;;;5019632;28;20072;-81
2023/09/07 00:20:52;;;;;;;2.85;1.85;;;12.60;99.90;;;;;;5018414;28;20362;-82
2023/09/07 00:23:19;;;;;;;3.40;2.05;;;;;;;;;;5011229;28;20033;-82
2023/09/07 00:25:45;;;;;;;3.33;1.70;;;;;;;;;;5018759;28;20030;-82
2023/09/07 00:28:11;;;;;;;2.00;1.13;;;;;;;;;;5014200;28;20036;-81
2023/09/07 00:30:38;;;;;;;4.95;1.60;;;;;;;;;;5019781;28;20504;-81
2023/09/07 00:33:03;;;;;;;2.97;1.30;;;12.40;99.90;;;;;;5024828;28;20029;-82
2023/09/07 00:35:29;;;;;;;2.65;1.67;;;;;;;;;;5017482;28;20037;-82
2023/09/07 00:37:55;;;;;;;2.47;1.30;;;;;;;;;;5023529;28;20084;-82
2023/09/07 00:40:22;;;;;;;6.07;1.65;;;12.70;99.90;;;;;;5026107;28;20613;-81
2023/09/07 00:42:48;;;;;;;2.83;1.08;;;;;;;;;;5005726;28;20468;-83
2023/09/07 00:45:14;;;;;;;3.88;2.00;;;;;;;;;;5020734;28;20097;-82
2023/09/07 00:47:40;;;;;;;3.33;1.58;;;;;;;;;;5010115;28;20021;-82
2023/09/07 00:50:07;;;;;;;3.75;2.08;;;;;;;;;;5021758;28;20052;-81
2023/09/07 00:52:34;;;;;;;3.83;1.80;;;12.50;99.90;;;;;;5019197;28;20030;-82
2023/09/07 00:55:04;;;;;;;3.38;2.08;;;12.60;99.90;;;;;;5020212;28;20661;-82
2023/09/07 00:57:30;;;;;;;2.65;1.60;;;15.50;99.90;;;;;;5005275;28;20034;-82
2023/09/07 00:59:56;;;;;;;3.20;1.70;;;;;;;;;;5019697;28;20059;-82
2023/09/07 01:02:22;;;;;;;2.95;1.60;;;;;;;;;;5005119;28;20030;-82
2023/09/07 01:04:50;;;;;;;3.38;1.77;;;12.20;99.90;;;;;;5006731;28;20025;-82
2023/09/07 01:07:22;;;;;;;3.63;1.17;;;;;;;;;;5024884;28;20888;-82
2023/09/07 01:09:51;;;;;;;2.60;1.60;;;;;;;;;;5020047;28;20497;-82
2023/09/07 01:12:17;;;;;;;3.88;1.63;;;;;;;;;;5007391;28;20018;-82
2023/09/07 01:14:45;;;;;;;3.60;1.52;;;;;;;;;;5029759;28;20044;-81
2023/09/07 01:17:13;;;;;;;3.25;1.92;;;;;;;;;;5005504;28;20103;-82
2023/09/07 01:19:39;;;;;;;2.97;1.73;;;;;;;;;;5006756;28;20033;-81
2023/09/07 01:22:06;;;;;;;3.75;1.73;;;;;;;;;;5008480;28;20033;-81
2023/09/07 01:24:35;;;;;;;4.90;1.50;;;;;;;;;;5022489;28;20030;-81
2023/09/07 01:27:02;;;;;;;5.72;1.17;;;;;;;;;;5019066;28;20071;-81
2023/09/07 01:29:29;;;;;;;4.05;1.90;;;;;;;;;;5007393;28;20117;-82
2023/09/07 01:31:55;;;;;;;2.60;1.38;;;;;;;;;;5006831;28;20080;-81
2023/09/07 01:34:21;;;;;;;7.47;1.65;;;;;;;;;;5023745;28;20034;-82
2023/09/07 01:36:46;;;;;;;5.35;1.42;;;;;;;;;;5044090;28;20025;-82
2023/09/07 01:39:12;;;;;;;3.22;1.20;;;;;;;;;;5034426;28;20493;-83
2023/09/07 01:41:38;;;;;;;1.73;1.23;;;12.30;99.90;;;;;;5006206;28;21927;-83
2023/09/07 01:44:04;;;;;;;2.30;1.02;;;12.20;99.90;;;;;;5002065;28;20033;-82
2023/09/07 01:46:30;;;;;;;3.40;1.48;;;12.10;99.90;;;;;;4999440;28;20065;-82
2023/09/07 01:48:55;;;;;;;4.30;1.13;;;;;;;;;;5023683;28;20064;-82
2023/09/07 01:51:22;;;;;;;2.85;1.17;;;;;;;;;;5015306;28;20061;-82
2023/09/07 01:53:48;;;;;;;2.38;1.30;;;12.00;99.90;;;;;;5026167;28;20029;-81
2023/09/07 01:56:18;;;;;;;3.28;1.77;;;13.60;99.90;;;;;;4999593;28;20041;-82
2023/09/07 01:58:43;;;;;;;1.67;1.05;;;11.70;99.90;;;;;;5018197;28;20072;-82
2023/09/07 02:01:23;;;;;;;2.75;1.67;;;11.80;99.90;;;;;;5016817;28;20119;-82
2023/09/07 02:03:49;;;;;;;2.35;1.27;;;11.70;99.90;;;;;;5012958;28;20029;-82
2023/09/07 02:06:14;;;;;;;2.15;1.33;;;11.90;99.90;;;;;;5016528;28;20025;-82
2023/09/07 02:08:40;;;;;;;3.42;1.33;;;11.80;99.90;;;;;;5006409;28;20053;-82
2023/09/07 02:11:06;;;;;;;2.70;1.60;;;;;;;;;;5021908;28;20505;-82
2023/09/07 02:13:32;;;;;;;3.40;1.13;;;;;;;;;;5017507;28;20566;-82
2023/09/07 02:15:58;;;;;;;1.75;1.00;;;;;;;;;;5019516;28;20025;-83
2023/09/07 02:18:24;;;;;;;2.38;0.93;;;;;;;;;;5018650;28;20029;-82
2023/09/07 02:20:50;;;;;;;1.65;1.02;;;;;;;;;;5006834;28;20106;-83
2023/09/07 02:23:16;;;;;;;2.08;1.30;;;;;;;;;;5006880;28;20014;-83
2023/09/07 02:25:43;;;;;;;1.13;0.80;;;;;;;;;;5021111;28;20029;-83
2023/09/07 02:28:09;;;;;;;1.80;0.90;;;;;;;;;;5014254;28;20709;-81
2023/09/07 02:30:34;;;;;;;2.03;1.20;;;;;;;;;;5004435;28;20034;-81
2023/09/07 02:33:00;;;;;;;2.53;1.35;;;;;;;;;;5016936;28;20033;-82
2023/09/07 02:35:26;;;;;;;2.53;1.35;;;;;;;;;;5011282;28;20053;-82
2023/09/07 02:37:52;;;;;;;2.10;1.33;;;;;;;;;;5015137;28;20116;-84
2023/09/07 02:40:18;;;;;;;5.15;1.30;;;;;;;;;;5005200;28;20021;-83
2023/09/07 02:42:44;;;;;;;3.08;1.60;;;;;;;;;;5001112;28;20029;-82
2023/09/07 02:45:12;;;;;;;2.35;1.35;;;11.40;99.90;;;;;;5010453;28;20076;-82
2023/09/07 02:47:38;;;;;;;2.17;1.05;;;;;;;;;;5018453;28;20064;-82
2023/09/07 02:50:04;;;;;;;2.83;1.30;;;;;;;;;;5019491;28;20124;-82
2023/09/07 02:52:30;;;;;;;1.90;1.20;;;;;;;;;;5018709;28;20100;-82
2023/09/07 02:54:56;;;;;;;2.25;1.33;;;;;;;;;;5004920;28;20125;-82
2023/09/07 02:57:22;;;;;;;2.55;1.33;;;;;;;;;;5002074;28;20030;-82
2023/09/07 02:59:48;;;;;;;2.42;1.60;;;;;;;;;;5014447;28;20100;-82
2023/09/07 03:02:14;;;;;;;2.85;1.77;;;;;;;;;;5010078;28;20549;-82
2023/09/07 03:04:40;;;;;;;3.25;1.15;;;;;;;;;;5023944;28;20036;-82
2023/09/07 03:07:06;;;;;;;2.67;1.17;;;;;;;;;;5016321;28;20033;-82
2023/09/07 03:09:32;;;;;;;2.40;1.35;;;;;;;;;;5006981;28;20025;-81
2023/09/07 03:11:58;;;;;;;1.85;0.98;;;;;;;;;;5017412;28;20116;-81
2023/09/07 03:14:24;;;;;;;2.38;1.10;;;;;;;;;;5003899;28;20418;-82
2023/09/07 03:16:50;;;;;;;2.70;1.40;;;;;;;;;;5002737;28;20117;-81
2023/09/07 03:19:16;;;;;;;3.00;1.40;;;;;;;;;;5001015;28;20531;-81
2023/09/07 03:21:42;;;;;;;2.53;1.33;;;11.00;99.90;;;;;;5016169;28;20148;-82
2023/09/07 03:24:08;;;;;;;2.67;1.13;;;;;;;;;;4998755;28;20030;-81
2023/09/07 03:26:34;;;;;;;4.03;2.05;;;10.90;99.90;;;;;;5016440;28;20156;-82
2023/09/07 03:29:00;;;;;;;3.35;1.45;;;;;;;;;;5009897;28;20041;-82
2023/09/07 03:31:26;;;;;;;2.05;1.40;;;;;;;;;;5014089;28;20037;-82
2023/09/07 03:33:52;;;;;;;2.50;1.45;;;;;;;;;;5014412;28;20255;-81
2023/09/07 03:36:18;;;;;;;4.05;1.42;;;;;;;;;;5015712;28;20029;-82
2023/09/07 03:38:44;;;;;;;2.63;1.48;;;;;;;;;;5023127;28;20100;-81
2023/09/07 03:41:10;;;;;;;4.18;1.88;;;;;;;;;;5014380;28;20040;-81
2023/09/07 03:43:36;;;;;;;2.95;1.55;;;;;;;;;;5017795;28;20115;-82
2023/09/07 03:46:02;;;;;;;10.40;2.15;;;;;;;;;;5012829;28;20226;-82
2023/09/07 03:48:28;;;;;;;3.13;1.27;;;10.70;99.90;;;;;;5014415;28;20464;-81
2023/09/07 03:50:54;;;;;;;3.45;1.75;;;;;;;;;;5002097;28;20030;-81
2023/09/07 03:53:20;;;;;;;2.00;1.20;;;;;;;;;;5016904;28;20485;-81
2023/09/07 03:55:46;;;;;;;4.18;1.35;;;;;;;;;;5010752;28;20139;-82
2023/09/07 03:58:12;;;;;;;3.20;1.40;;;11.90;99.90;;;;;;4990753;28;20077;-81
2023/09/07 04:00:41;;;;;;;2.75;1.30;;;11.10;99.90;;;;;;5007863;28;20069;-81
2023/09/07 04:03:08;;;;;;;4.15;1.73;;;;;;;;;;5017594;28;20052;-81
2023/09/07 04:05:34;;;;;;;2.60;1.55;;;;;;;;;;5020864;28;20029;-82
2023/09/07 04:08:02;;;;;;;3.20;1.60;;;10.80;99.90;;;;;;5023316;28;20032;-82
2023/09/07 04:10:28;;;;;;;2.83;1.10;;;;;;;;;;5015523;28;20831;-83
2023/09/07 04:12:54;;;;;;;3.90;1.33;;;;;;;;;;5025059;28;20067;-83
2023/09/07 04:15:20;;;;;;;3.67;1.70;;;;;;;;;;5028501;28;20045;-82
2023/09/07 04:17:46;;;;;;;2.90;1.38;;;;;;;;;;5032550;28;20025;-82
2023/09/07 04:20:12;;;;;;;4.72;1.60;;;10.90;99.90;;;;;;5020185;28;20040;-82
2023/09/07 04:22:39;;;;;;;4.82;2.03;;;11.00;99.90;;;;;;5050456;28;20041;-82
2023/09/07 04:25:05;;;;;;;3.63;1.88;;;;;;;;;;5026173;28;20044;-82
2023/09/07 04:27:32;;;;;;;5.32;2.25;;;;;;;;;;5021884;28;20029;-81
2023/09/07 04:29:58;;;;;;;3.38;1.55;;;;;;;;;;5032362;28;20025;-82
2023/09/07 04:32:24;;;;;;;4.93;1.88;;;;;;;;;;5006181;28;20057;-82
2023/09/07 04:34:54;;;;;;;2.35;1.50;;;;;;;;;;5020284;28;20033;-81
2023/09/07 04:37:20;;;;;;;4.38;2.33;;;;;;;;;;5031047;28;20573;-81
2023/09/07 04:39:47;;;;;;;4.97;2.30;;;;;;;;;;5024467;28;20580;-81
2023/09/07 04:42:13;;;;;;;4.07;2.08;;;;;;;;;;5028125;28;20100;-81
2023/09/07 04:44:39;;;;;;;3.70;2.05;;;;;;;;;;5036465;28;20028;-82
2023/09/07 04:47:05;;;;;;;2.97;1.67;;;;;;;;;;5029819;28;20548;-83
2023/09/07 04:49:31;;;;;;;4.38;2.10;;;;;;;;;;5009737;28;20774;-82
2023/09/07 04:51:57;;;;;;;3.78;1.75;;;;;;;;;;5003122;28;20088;-81
2023/09/07 04:54:23;;;;;;;3.72;1.88;;;;;;;;;;5021290;28;20587;-81
2023/09/07 04:56:50;;;;;;;4.00;2.03;;;;;;;;;;5019837;28;20060;-82
2023/09/07 04:59:16;;;;;;;3.38;1.58;;;;;;;;;;5005189;28;20025;-81
2023/09/07 05:01:42;;;;;;;4.88;2.40;;;;;;;;;;5010402;28;20597;-82
2023/09/07 05:04:07;;;;;;;1.90;1.30;;;10.70;99.90;;;;;;5025595;28;20034;-81
2023/09/07 05:06:37;;;;;;;4.43;1.92;;;;;;;;;;5019181;28;20028;-81
2023/09/07 05:09:03;;;;;;;3.60;1.77;;;10.70;99.90;;;;;;5006286;28;20121;-83
2023/09/07 05:11:29;;;;;;;4.68;2.33;;;;;;;;;;5026925;28;20030;-81
2023/09/07 05:13:55;;;;;;;9.02;2.17;;;;;;;;;;5022832;28;20025;-81
2023/09/07 05:16:22;;;;;;;4.03;2.67;;;;;;;;;;5018112;28;20405;-81
2023/09/07 05:18:48;;;;;;;3.50;1.77;;;;;;;;;;5011012;28;20029;-81
2023/09/07 05:21:14;;;;;;;5.60;1.90;;;10.90;99.90;;;;;;5024481;28;20485;-81
2023/09/07 05:23:40;;;;;;;3.97;1.65;;;10.50;99.90;;;;;;5025419;28;20033;-81
2023/09/07 05:26:06;;;;;;;4.18;1.88;;;;;;;;;;5017043;28;20055;-81
2023/09/07 05:28:31;;;;;;;5.88;1.80;;;11.00;99.90;;;;;;5023393;28;20021;-82
2023/09/07 05:30:57;;;;;;;4.38;2.10;;;;;;;;;;5019793;28;20038;-82
2023/09/07 05:33:24;;;;;;;3.55;2.00;;;;;;;;;;5008859;28;20029;-81
2023/09/07 05:35:50;;;;;;;4.10;2.42;;;;;;;;;;5023217;28;20048;-80
2023/09/07 05:38:16;;;;;;;2.83;1.90;;;;;;;;;;5022611;28;20029;-82
2023/09/07 05:40:43;;;;;;;6.90;1.92;;;11.20;99.90;;;;;;4998744;28;20038;-81
2023/09/07 05:43:10;;;;;;;3.38;1.50;;;11.00;99.90;;;;;;5013914;28;20084;-81
2023/09/07 05:45:41;;;;;;;4.45;2.00;;;10.90;99.90;;;;;;5005237;28;20088;-81
2023/09/07 05:48:07;;;;;;;3.10;1.92;;;;;;;;;;5020323;28;20026;-81
2023/09/07 05:50:35;;;;;;;3.72;1.63;;;11.00;99.90;;;;;;4998988;28;20038;-81
2023/09/07 05:53:01;;;;;;;4.70;1.58;;;;;;;;;;5003321;28;20081;-81
2023/09/07 05:55:26;;;;;;;4.40;2.38;;;10.90;99.90;;;;;;5009949;28;20037;-81
2023/09/07 05:57:55;;;;;;;2.95;1.67;;;11.10;99.90;;;;;;5016677;28;20033;-82
2023/09/07 06:00:21;;;;;;;2.60;1.23;;;;;;;;;;5010903;28;20029;-82
2023/09/07 06:02:47;;;;;;;4.70;2.40;;;;;;;;;;5014725;28;20045;-82
2023/09/07 06:05:13;;;;;;;3.63;2.20;;;11.50;99.90;;;;;;5017204;28;20025;-82
2023/09/07 06:07:39;;;;;;;4.30;2.10;;;;;;;;;;5015750;28;20567;-81
2023/09/07 06:10:05;;;;;;;4.43;2.30;;;;;;;;;;5016000;28;20245;-83
2023/09/07 06:12:32;;;;;;;3.35;2.10;;;11.30;99.90;;;;;;5018519;28;20030;-83
2023/09/07 06:14:58;;;;;;;3.45;2.13;;;;;;;;;;4998375;28;20495;-81
2023/09/07 06:17:24;;;;;;;8.15;1.88;;;;;;;;;;5014010;28;20068;-81
2023/09/07 06:19:50;;;;;;;2.95;1.70;;;;;;;;;;5013419;28;20064;-81
2023/09/07 06:22:16;;;;;;;3.70;2.13;;;;;;;;;;5017022;28;20033;-81
2023/09/07 06:24:41;;;;;;;4.07;2.13;;;;;;;;;;5010590;28;20045;-81
2023/09/07 06:27:07;;;;;;;3.55;2.10;;;;;;;;;;5020249;28;20021;-82
2023/09/07 06:29:33;;;;;;;5.05;2.83;;;;;;;;;;5020672;28;20105;-81
2023/09/07 06:32:00;;;;;;;4.03;2.47;;;;;;;;;;5026417;28;20449;-81
2023/09/07 06:34:26;;;;;;;8.27;2.65;;;;;;;;;;5023675;28;20405;-82
2023/09/07 06:36:52;;;;;;;6.38;2.60;;;;;;;;;;5026541;28;20037;-82
2023/09/07 06:39:18;;;;;;;6.65;2.70;;;;;;;;;;5008818;28;20041;-81
2023/09/07 06:41:46;;;;;;;4.85;3.08;;;12.40;99.90;;;;;;5019113;28;20029;-81
2023/09/07 06:44:11;;;;;;;5.18;3.28;;;;;;;;;;5006559;28;20026;-81
2023/09/07 06:46:37;;;;;;;13.70;2.90;;;;;;;;;;5018914;28;20030;-81
2023/09/07 06:49:03;;;;;;;6.18;3.70;;;;;;;;;;5023486;28;20105;-83
2023/09/07 06:51:32;;;;;;;5.78;3.10;;;13.20;99.90;;;;;;5016281;28;20414;-81
2023/09/07 06:53:58;;;;;;;5.97;3.40;;;12.90;99.90;;;;;;5021313;28;20034;-81
2023/09/07 06:56:26;;;;;;;7.07;4.10;;;;;;;;;;5020483;28;20536;-81
2023/09/07 06:58:52;;;;;;;8.13;3.92;;;;;;;;;;5001608;28;20042;-82
2023/09/07 07:01:18;;;;;;;6.28;3.85;;;;;;;;;;5005492;28;20509;-80
2023/09/07 07:03:44;;;;;;;8.20;4.00;;;;;;;;;;5003208;28;20029;-79
2023/09/07 07:06:10;;;;;;;7.13;3.75;;;;;;;;;;5046668;28;20021;-81
2023/09/07 07:08:36;;;;;;;6.70;3.20;;;14.20;99.90;;;;;;5012191;28;20152;-81
2023/09/07 07:11:02;;;;;;;6.85;3.45;;;;;;;;;;5003220;28;20778;-82
2023/09/07 07:13:28;;;;;;;8.75;3.97;;;;;;;;;;5017988;28;20029;-81
2023/09/07 07:15:54;;;;;;;6.80;3.88;;;;;;;;;;5011232;28;20464;-81
2023/09/07 07:18:19;;;;;;;6.43;3.65;;;14.10;99.90;;;;;;5019944;28;20030;-82
2023/09/07 07:20:45;;;;;;;6.10;3.22;;;;;;;;;;5019538;28;20036;-80
2023/09/07 07:23:12;;;;;;;7.32;3.53;;;;;;;;;;5020046;28;20105;-81
2023/09/07 07:25:38;;;;;;;8.07;3.75;;;14.50;99.90;;;;;;5025071;28;20022;-81
2023/09/07 07:28:07;;;;;;;5.10;2.92;;;15.10;99.90;;;;;;5005203;28;20076;-80
2023/09/07 07:30:37;;;;;;;4.90;2.63;;;17.10;99.90;;;;;;5013954;28;20034;-81
2023/09/07 07:33:04;;;;;;;6.18;4.05;;;15.00;99.90;;;;;;5003519;28;20029;-81
2023/09/07 07:35:30;;;;;;;5.15;2.92;;;15.10;99.90;;;;;;5007065;28;20513;-81
2023/09/07 07:37:56;;;;;;;8.38;3.45;;;15.20;99.90;;;;;;5023012;28;20038;-81
2023/09/07 07:40:22;;;;;;;8.35;4.00;;;;;;;;;;5024448;28;20036;-80
2023/09/07 07:42:48;;;;;;;5.57;3.15;;;16.30;99.90;;;;;;5022751;28;20508;-80
2023/09/07 07:45:14;;;;;;;5.32;3.00;;;;;;;;;;5014625;28;20022;-82
2023/09/07 07:47:42;;;;;;;16.02;2.90;;;16.50;99.90;;;;;;5008725;28;20109;-81
2023/09/07 07:50:08;;;;;;;3.42;2.40;;;16.60;99.90;;;;;;5029493;28;20537;-81
2023/09/07 07:52:34;;;;;;;5.88;3.35;;;16.70;99.90;;;;;;5016178;28;20056;-81
2023/09/07 07:55:00;;;;;;;7.78;2.92;;;16.80;99.90;;;;;;5011711;28;20022;-81
2023/09/07 07:57:26;;;;;;;5.40;3.10;;;;;;;;;;5024523;28;20037;-82
2023/09/07 07:59:52;;;;;;;5.07;2.88;;;;;;;;;;5026007;28;20022;-81
2023/09/07 08:02:18;;;;;;;5.55;3.03;;;17.20;99.90;;;;;;5003881;28;20076;-81
2023/09/07 08:04:45;;;;;;;6.47;3.13;;;17.00;99.90;;;;;;5026772;28;20057;-81
2023/09/07 08:07:12;;;;;;;3.70;2.80;;;18.00;99.90;;;;;;5029137;28;20382;-81
2023/09/07 08:09:38;;;;;;;5.20;2.95;;;;;;;;;;5025009;28;20076;-81
2023/09/07 08:12:05;;;;;;;4.60;2.45;;;;;;;;;;5025580;28;20045;-82
2023/09/07 08:14:31;;;;;;;3.67;2.50;;;;;;;;;;5010378;28;20030;-81
2023/09/07 08:16:58;;;;;;;4.22;2.38;;;19.70;99.90;;;;;;5024990;28;20520;-81
2023/09/07 08:19:24;;;;;;;4.57;2.65;;;;;;;;;;5009910;28;20532;-82
2023/09/07 08:21:50;;;;;;;14.20;2.90;;;;;;;;;;5011562;28;20445;-81
2023/09/07 08:24:16;;;;;;;4.28;2.17;;;20.30;99.90;;;;;;5009794;28;20029;-82
2023/09/07 08:26:42;;;;;;;5.80;2.20;;;20.60;99.90;;;;;;5029686;28;20036;-81
2023/09/07 08:29:08;;;;;;;3.25;2.13;;;21.00;99.90;;;;;;5025658;28;20042;-81
2023/09/07 08:31:38;;;;;;;4.65;2.35;;;21.20;99.90;;;;;;5006214;28;20045;-82
2023/09/07 08:34:06;;;;;;;5.45;2.28;;;21.30;99.90;;;;;;5021235;28;20037;-83
2023/09/07 08:36:33;;;;;;;3.70;2.08;;;21.30;99.90;;;;;;5030717;28;20037;-82
2023/09/07 08:39:07;;;;;;;2.78;1.67;;;21.70;99.90;;;;;;5023032;28;20057;-81
2023/09/07 08:41:44;;;;;;;4.35;1.42;;;21.80;99.90;;;;;;5008791;28;20516;-83
2023/09/07 08:44:11;;;;;;;4.53;2.33;;;22.50;99.90;;;;;;5021169;28;20049;-80
2023/09/07 08:46:37;;;;;;;4.40;1.85;;;23.60;99.90;;;;;;5010557;28;20025;-82
2023/09/07 08:49:03;;;;;;;4.45;2.10;;;25.80;99.90;;;;;;5022656;28;20049;-83
2023/09/07 08:51:31;;;;;;;3.20;1.40;;;26.80;99.90;;;;;;5021639;28;20041;-82
2023/09/07 08:54:00;;;;;;;5.82;1.65;;;29.60;94.60;;;;;;5042981;23;21229;-87
2023/09/07 08:56:26;;;;;;;4.05;2.00;;;;;;;;;;5028061;28;20427;-86
2023/09/07 08:58:52;;;;;;;2.00;1.20;;;;;;;;;;5033061;28;20089;-86
2023/09/07 09:01:21;;;;;;;2.58;1.38;;;;;;;;;;5020972;28;20187;-84
2023/09/07 09:03:48;;;;;;;1.92;1.08;;;32.50;83.40;;;;;;5002960;28;20017;-83
2023/09/07 09:06:18;;;;;;;1.92;1.10;;;36.70;83.20;;;;;;5008629;28;20056;-85
2023/09/07 09:08:45;;;;;;;3.15;1.60;;;33.80;78.30;;;;;;5009033;28;20033;-84
2023/09/07 09:11:12;;;;;;;1.52;1.00;;;32.50;75.70;;;;;;5031946;28;20163;-85
2023/09/07 09:13:40;;;;;;;4.78;1.30;;;30.90;79.10;;;;;;5029852;28;20021;-85
2023/09/07 09:16:06;;;;;;;4.28;1.70;;;;;;;;;;5025325;28;20076;-86
2023/09/07 09:18:32;;;;;;;2.53;1.27;;;;;;;;;;5017770;28;20518;-85
2023/09/07 09:20:58;;;;;;;2.53;1.55;;;;;;;;;;5000942;28;21931;-85
2023/09/07 09:23:25;;;;;;;2.15;1.30;;;;;;;;;;5023670;28;20135;-84
2023/09/07 09:25:51;;;;;;;3.22;1.38;;;;;;;;;;5023572;28;20079;-87
2023/09/07 09:28:17;;;;;;;3.45;1.08;;;;;;;;;;5025419;28;20399;-86
2023/09/07 09:30:43;;;;;;;4.55;1.80;;;;;;;;;;5016002;28;20029;-86
2023/09/07 09:33:10;;;;;;;2.45;1.17;;;24.90;94.40;;;;;;5003232;28;20079;-85
2023/09/07 09:35:36;;;;;;;3.15;1.70;;;;;;;;;;5015213;28;20059;-84
2023/09/07 09:38:05;;;;;;;2.97;1.65;;;;;;;;;;5019533;28;20061;-86
2023/09/07 09:40:37;;;;;;;3.08;1.70;;;25.00;91.60;;;;;;5015863;28;21044;-86
2023/09/07 09:43:04;;;;;;;2.40;1.45;;;;;;;;;;5004860;28;20034;-85
2023/09/07 09:45:30;;;;;;;2.03;1.25;;;;;;;;;;5019420;28;20041;-83
2023/09/07 09:47:56;;;;;;;2.60;1.30;;;;;;;;;;5018370;28;20029;-81
2023/09/07 09:50:22;;;;;;;3.22;1.38;;;25.30;94.80;;;;;;5005770;28;20028;-88
2023/09/07 09:52:50;;;;;;;2.00;1.60;;;;;;;;;;5013010;28;20684;-84
2023/09/07 09:55:16;;;;;;;2.90;1.40;;;;;;;;;;5026854;28;20029;-85
2023/09/07 09:57:42;;;;;;;5.72;1.58;;;;;;;;;;5027993;28;20039;-84
2023/09/07 10:00:28;;;;;;;4.30;1.60;;;25.50;95.00;;;;;;5033350;28;20089;-84
2023/09/07 10:03:32;;;;;;;4.50;1.80;;;25.60;94.90;;;;;;5017572;28;20033;-82
2023/09/07 10:06:10;;;;;;;5.65;1.50;;;;;;;;;;5017419;28;20038;-81
2023/09/07 10:08:36;;;;;;;2.67;1.77;;;;;;;;;;5029421;28;20056;-83
2023/09/07 10:11:11;;;;;;;3.65;1.65;;;25.70;94.70;;;;;;5027524;28;20058;-83
2023/09/07 10:13:37;;;;;;;2.47;1.48;;;;;;;;;;5002489;28;20021;-85
2023/09/07 10:16:07;;;;;;;3.85;1.73;;;25.70;94.60;;;;;;5021622;28;20108;-86
2023/09/07 10:18:37;;;;;;;4.15;1.60;;;25.60;93.70;;;;;;5026191;28;20044;-85
2023/09/07 10:21:04;;;;;;;2.38;1.38;;;;;;;;;;5021706;28;20495;-86
2023/09/07 10:23:43;;;;;;;5.53;2.05;;;26.10;92.70;;;;;;5006779;28;20029;-85
2023/09/07 10:26:13;;;;;;;4.93;1.67;;;;;;;;;;5019516;28;20033;-84
2023/09/07 10:28:40;;;;;;;2.10;1.30;;;;;;;;;;5025964;28;20021;-84
2023/09/07 10:31:18;;;;;;;2.25;1.10;;;26.10;93.70;;;;;;5020368;28;20028;-86
2023/09/07 10:33:45;;;;;;;2.85;1.60;;;25.90;93.50;;;;;;5024805;28;20037;-86
2023/09/07 10:36:27;;;;;;;2.03;1.38;;;25.10;92.50;;;;;;5019122;28;20024;-85
2023/09/07 10:38:56;;;;;;;1.63;1.13;;;25.90;92.40;;;;;;5023476;28;20831;-87
2023/09/07 10:41:22;;;;;;;2.50;1.42;;;;;;;;;;5026197;28;20091;-86
2023/09/07 10:43:53;;;;;;;3.25;1.70;;;25.70;91.30;;;;;;5017540;28;20029;-86
2023/09/07 10:46:23;;;;;;;3.55;1.15;;;26.00;92.90;;;;;;5022969;28;20025;-87
2023/09/07 10:48:52;;;;;;;4.57;1.52;;;25.80;90.30;;;;;;5028907;28;20026;-85
2023/09/07 10:51:19;;;;;;;2.30;1.10;;;26.20;91.60;;;;;;5029488;28;20052;-87
2023/09/07 10:53:45;;;;;;;1.67;1.20;;;;;;;;;;5016226;28;20185;-87
2023/09/07 10:56:11;;;;;;;3.10;1.45;;;;;;;;;;5031159;28;20041;-87
2023/09/07 10:58:42;;;;;;;2.92;1.00;;;;;;;;;;5020037;28;20116;-86
2023/09/07 11:01:09;;;;;;;2.83;1.65;;;26.40;90.80;;;;;;5019622;28;20029;-85
2023/09/07 11:03:38;;;;;;;3.08;1.60;;;;;;;;;;5025457;28;20140;-87
2023/09/07 11:06:11;;;;;;;3.33;1.30;;;26.50;91.40;;;;;;5025179;28;20548;-86
2023/09/07 11:08:37;;;;;;;3.03;1.52;;;;;;;;;;5024657;28;20040;-87
2023/09/07 11:11:04;;;;;;;3.65;1.63;;;;;;;;;;5026424;28;20046;-86
2023/09/07 11:13:30;;;;;;;3.67;1.10;;;;;;;;;;5021712;28;20042;-85
2023/09/07 11:15:57;;;;;;;2.28;1.45;;;;;;;;;;5015652;28;20029;-84
2023/09/07 11:18:24;;;;;;;2.33;1.33;;;27.00;91.20;;;;;;5018742;28;20045;-88
2023/09/07 11:20:53;;;;;;;9.00;1.50;;;;;;;;;;5016195;28;20115;-85
2023/09/07 11:23:20;;;;;;;4.20;1.52;;;26.60;91.30;;;;;;5013383;28;21066;-86
2023/09/07 11:25:49;;;;;;;3.35;1.45;;;;;;;;;;5017608;28;20064;-85
2023/09/07 11:28:18;;;;;;;3.67;1.35;;;26.60;88.90;;;;;;5013230;28;20395;-84
2023/09/07 11:30:51;;;;;;;2.25;1.33;;;26.70;88.50;;;;;;5019709;28;20472;-85
2023/09/07 11:33:17;;;;;;;2.08;1.27;;;;;;;;;;5014707;28;20044;-89
2023/09/07 11:35:43;;;;;;;2.70;1.70;;;;;;;;;;4999884;28;20029;-86
2023/09/07 11:38:10;;;;;;;2.65;1.38;;;;;;;;;;5014458;28;20034;-88
2023/09/07 11:40:37;;;;;;;3.33;1.58;;;;;;;;;;5019027;28;20120;-86
2023/09/07 11:43:03;;;;;;;4.90;1.52;;;;;;;;;;4990087;28;20079;-85
2023/09/07 11:45:29;;;;;;;2.55;1.45;;;;;;;;;;5027182;28;20022;-85
2023/09/07 11:47:55;;;;;;;3.60;1.75;;;;;;;;;;5027492;28;20021;-86
2023/09/07 11:50:30;;;;;;;2.05;1.20;;;27.20;89.60;;;;;;5031424;28;20037;-87
2023/09/07 11:52:56;;;;;;;2.65;1.30;;;;;;;;;;5021658;28;20037;-85
2023/09/07 11:55:22;;;;;;;2.75;1.55;;;;;;;;;;5029398;28;20037;-85
2023/09/07 11:57:48;;;;;;;2.90;1.35;;;;;;;;;;5031443;28;20100;-85
2023/09/07 12:00:14;;;;;;;3.45;1.95;;;27.00;99.70;;;;;;5036964;28;20337;-85
2023/09/07 12:02:41;;;;;;;2.85;1.63;;;28.10;89.40;;;;;;5027357;28;20067;-86
2023/09/07 12:05:14;;;;;;;5.65;1.45;;;27.50;87.30;;;;;;5031308;28;20041;-84
2023/09/07 12:07:40;;;;;;;4.55;1.13;;;;;;;;;;5023798;28;20373;-85
2023/09/07 12:10:10;;;;;;;6.38;1.30;;;28.20;90.80;;;;;;5026004;28;20030;-86
2023/09/07 12:12:36;;;;;;;2.20;1.35;;;;;;;;;;5020835;28;20025;-85
2023/09/07 12:15:03;;;;;;;2.22;1.40;;;;;;;;;;5051296;28;20029;-85
2023/09/07 12:17:29;;;;;;;2.35;1.50;;;;;;;;;;5051228;28;20205;-86
2023/09/07 12:19:55;;;;;;;3.03;1.45;;;;;;;;;;5048236;28;20165;-85
2023/09/07 12:22:21;;;;;;;3.47;1.52;;;;;;;;;;5038207;28;20496;-87
2023/09/07 12:24:47;;;;;;;2.83;1.50;;;;;;;;;;5020168;28;20033;-85
2023/09/07 12:27:13;;;;;;;3.03;1.58;;;27.50;85.80;;;;;;5035049;28;20033;-86
2023/09/07 12:29:39;;;;;;;2.55;1.35;;;;;;;;;;5039280;28;20044;-87
2023/09/07 12:32:05;;;;;;;2.08;1.27;;;;;;;;;;5037060;28;20035;-84
2023/09/07 12:34:31;;;;;;;1.90;1.35;;;;;;;;;;5031931;28;20121;-86
2023/09/07 12:36:57;;;;;;;7.35;1.42;;;;;;;;;;5036704;28;20048;-86
2023/09/07 12:39:23;;;;;;;1.83;1.25;;;;;;;;;;5039276;28;20109;-83
2023/09/07 12:41:49;;;;;;;1.52;1.08;;;;;;;;;;5036176;28;20167;-87
2023/09/07 12:44:15;;;;;;;3.42;1.38;;;;;;;;;;5033861;28;20029;-86
2023/09/07 12:46:41;;;;;;;5.10;1.65;;;;;;;;;;5030878;28;20022;-86
2023/09/07 12:49:07;;;;;;;5.78;2.08;;;;;;;;;;5033003;28;20202;-86
2023/09/07 12:51:33;;;;;;;2.63;1.35;;;;;;;;;;5026913;28;20422;-86
2023/09/07 12:53:59;;;;;;;3.22;1.40;;;;;;;;;;5031220;28;20026;-85
2023/09/07 12:56:25;;;;;;;1.98;0.90;;;;;;;;;;5028607;28;21536;-87
2023/09/07 12:58:52;;;;;;;3.58;1.33;;;;;;;;;;5034706;28;20093;-87
2023/09/07 13:01:18;;;;;;;1.83;0.98;;;;;;;;;;5029947;28;20025;-86
2023/09/07 13:03:44;;;;;;;2.72;1.52;;;;;;;;;;5029665;28;20113;-85
2023/09/07 13:06:10;;;;;;;1.73;1.17;;;;;;;;;;5014922;28;20101;-86
2023/09/07 13:08:36;;;;;;;1.88;1.20;;;;;;;;;;5034351;28;20535;-86
2023/09/07 13:11:02;;;;;;;2.67;1.67;;;27.60;94.90;;;;;;5034010;28;20056;-87
2023/09/07 13:13:29;;;;;;;2.30;1.42;;;;;;;;;;5031766;28;20025;-86
2023/09/07 13:15:58;;;;;;;3.08;1.75;;;28.20;81.50;;;;;;5040566;28;20623;-86
2023/09/07 13:18:24;;;;;;;8.05;1.63;;;;;;;;;;5034994;28;20471;-84
2023/09/07 13:20:51;;;;;;;3.70;1.52;;;27.40;94.60;;;;;;5032127;28;20037;-85
2023/09/07 13:23:17;;;;;;;3.67;1.63;;;;;;;;;;5024899;28;20080;-86
2023/09/07 13:25:44;;;;;;;2.70;1.48;;;;;;;;;;5029569;28;20029;-85
2023/09/07 13:28:09;;;;;;;2.67;1.42;;;;;;;;;;5027396;28;20053;-86
2023/09/07 13:30:35;;;;;;;3.70;1.55;;;;;;;;;;5034518;28;20033;-85
2023/09/07 13:33:01;;;;;;;2.72;1.60;;;;;;;;;;5029323;28;20099;-85
2023/09/07 13:35:27;;;;;;;3.88;1.65;;;;;;;;;;5030901;28;20029;-85
2023/09/07 13:37:53;;;;;;;2.42;1.50;;;;;;;;;;5035135;28;20029;-86
2023/09/07 13:40:21;;;;;;;3.53;1.58;;;27.60;83.70;;;;;;5026953;28;20520;-85
2023/09/07 13:42:48;;;;;;;2.85;1.60;;;27.50;81.50;;;;;;5023474;28;20092;-87
2023/09/07 13:45:14;;;;;;;2.92;1.38;;;;;;;;;;5028557;28;20037;-86
2023/09/07 13:47:40;;;;;;;2.60;1.23;;;;;;;;;;5025828;28;20023;-85
2023/09/07 13:50:06;;;;;;;5.20;1.52;;;27.70;77.20;;;;;;5026547;28;20395;-84
2023/09/07 13:52:32;;;;;;;3.25;1.25;;;;;;;;;;5022635;28;20109;-85
2023/09/07 13:54:58;;;;;;;1.95;1.05;;;;;;;;;;5028114;28;20029;-86
2023/09/07 13:57:24;;;;;;;2.10;1.38;;;;;;;;;;5024509;28;20459;-84